createdAt,value
2023-02-18T00:01:09.357Z,3.14
2023-02-18T00:03:35.824Z,3.17
2023-02-18T00:06:14.476Z,3.13
2023-02-18T00:08:42.485Z,3.08
2023-02-18T00:11:09.442Z,3.05
2023-02-18T00:13:36.446Z,3.00
2023-02-18T00:16:04.531Z,3.05
2023-02-18T00:18:31.242Z,3.03
2023-02-18T00:20:58.089Z,3.03
2023-02-18T00:23:25.731Z,3.04
2023-02-18T00:26:03.034Z,2.95
2023-02-18T00:28:30.288Z,2.91
2023-02-18T00:30:56.772Z,2.90
2023-02-18T00:33:23.266Z,2.90
2023-02-18T00:35:49.893Z,2.86
2023-02-18T00:38:16.584Z,2.85
2023-02-18T00:40:43.508Z,2.73
2023-02-18T00:43:10.111Z,2.79
2023-02-18T00:45:36.561Z,2.68
2023-02-18T00:48:03.029Z,2.70
2023-02-18T00:50:29.492Z,2.67
2023-02-18T00:52:55.919Z,2.64
2023-02-18T00:55:22.325Z,2.62
2023-02-18T00:57:48.757Z,2.59
2023-02-18T01:00:15.602Z,2.55
2023-02-18T01:02:42.085Z,2.51
2023-02-18T01:05:08.693Z,2.54
2023-02-18T01:07:35.132Z,2.49
2023-02-18T01:10:01.618Z,2.46
2023-02-18T01:12:28.231Z,2.43
2023-02-18T01:14:54.671Z,2.49
2023-02-18T01:17:21.140Z,2.41
2023-02-18T01:19:47.746Z,2.42
2023-02-18T01:22:14.202Z,2.46
2023-02-18T01:24:40.619Z,2.42
2023-02-18T01:27:07.153Z,2.36
2023-02-18T01:29:33.620Z,2.33
2023-02-18T01:32:00.157Z,2.38
2023-02-18T01:34:26.858Z,2.33
2023-02-18T01:36:53.321Z,2.33
2023-02-18T01:39:19.746Z,2.31
2023-02-18T01:41:46.205Z,2.37
2023-02-18T01:44:25.173Z,2.28
2023-02-18T01:46:51.750Z,2.31
2023-02-18T01:49:23.715Z,2.31
2023-02-18T01:51:57.320Z,2.34
2023-02-18T01:54:32.357Z,2.28
2023-02-18T01:57:12.693Z,2.26
2023-02-18T01:59:43.773Z,2.23
2023-02-18T02:02:14.529Z,2.24
2023-02-18T02:04:42.072Z,2.31
2023-02-18T02:07:45.059Z,2.30
2023-02-18T02:10:14.260Z,2.24
2023-02-18T02:13:15.396Z,2.23
2023-02-18T02:15:49.699Z,2.23
2023-02-18T02:18:22.842Z,2.17
2023-02-18T02:21:29.369Z,2.22
2023-02-18T02:24:14.941Z,2.22
2023-02-18T02:26:44.398Z,2.21
2023-02-18T02:29:29.375Z,2.15
2023-02-18T02:32:25.920Z,2.22
2023-02-18T02:35:04.521Z,2.22
2023-02-18T02:37:57.090Z,2.15
2023-02-18T02:40:57.698Z,2.20
2023-02-18T02:43:49.146Z,2.14
2023-02-18T02:46:28.335Z,2.13
2023-02-18T02:49:13.706Z,2.11
2023-02-18T02:52:05.705Z,2.08
2023-02-18T02:54:32.311Z,2.08
2023-02-18T02:57:13.783Z,2.11
2023-02-18T02:59:44.594Z,2.14
2023-02-18T03:02:45.309Z,2.08
2023-02-18T03:05:48.938Z,2.09
2023-02-18T03:08:40.859Z,2.01
2023-02-18T03:11:12.516Z,2.01
2023-02-18T03:14:06.367Z,2.01
2023-02-18T03:16:50.442Z,2.00
2023-02-18T03:19:35.266Z,1.99
2023-02-18T03:22:19.114Z,1.95
2023-02-18T03:24:52.074Z,1.99
2023-02-18T03:27:21.797Z,2.03
2023-02-18T03:29:55.947Z,2.08
2023-02-18T03:32:25.789Z,2.06
2023-02-18T03:34:57.556Z,2.07
2023-02-18T03:37:24.522Z,2.10
2023-02-18T03:39:56.809Z,2.11
2023-02-18T03:42:30.213Z,2.13
2023-02-18T03:44:56.912Z,2.16
2023-02-18T03:47:24.582Z,2.09
2023-02-18T03:49:51.138Z,2.05
2023-02-18T03:52:17.583Z,2.07
2023-02-18T03:54:44.075Z,2.04
2023-02-18T03:57:10.514Z,2.02
2023-02-18T03:59:36.966Z,1.93
2023-02-18T04:02:03.562Z,2.01
2023-02-18T04:04:30.324Z,1.98
2023-02-18T04:06:57.023Z,1.98
2023-02-18T04:09:23.576Z,1.91
2023-02-18T04:11:50.029Z,1.88
2023-02-18T04:14:16.496Z,1.85
2023-02-18T04:16:43.358Z,1.89
2023-02-18T04:19:10.069Z,1.83
2023-02-18T04:21:36.611Z,1.91
2023-02-18T04:24:03.172Z,1.86
2023-02-18T04:26:30.001Z,1.85
2023-02-18T04:28:56.591Z,1.82
2023-02-18T04:31:23.198Z,1.80
2023-02-18T04:33:49.745Z,1.82
2023-02-18T04:36:16.337Z,1.78
2023-02-18T04:38:43.198Z,1.82
2023-02-18T04:41:09.671Z,1.79
2023-02-18T04:43:36.174Z,1.79
2023-02-18T04:46:02.624Z,1.76
2023-02-18T04:48:29.228Z,1.83
2023-02-18T04:50:55.796Z,1.86
2023-02-18T04:53:22.473Z,1.82
2023-02-18T04:55:53.133Z,1.83
2023-02-18T04:58:20.625Z,1.82
2023-02-18T05:00:47.401Z,1.84
2023-02-18T05:03:15.133Z,1.79
2023-02-18T05:05:41.979Z,1.90
2023-02-18T05:08:09.029Z,1.93
2023-02-18T05:10:35.545Z,1.89
2023-02-18T05:13:02.027Z,1.91
2023-02-18T05:15:28.477Z,2.01
2023-02-18T05:17:54.956Z,1.98
2023-02-18T05:20:21.589Z,2.00
2023-02-18T05:22:48.015Z,1.98
2023-02-18T05:25:14.444Z,2.03
2023-02-18T05:27:40.910Z,2.06
2023-02-18T05:30:08.265Z,2.12
2023-02-18T05:32:34.810Z,2.09
2023-02-18T05:35:01.225Z,2.14
2023-02-18T05:37:27.975Z,2.15
2023-02-18T05:39:54.407Z,2.07
2023-02-18T05:42:20.878Z,2.10
2023-02-18T05:44:47.378Z,2.08
2023-02-18T05:47:13.852Z,2.10
2023-02-18T05:49:41.949Z,2.24
2023-02-18T05:52:09.807Z,2.21
2023-02-18T05:54:37.217Z,2.19
2023-02-18T05:57:03.989Z,2.25
2023-02-18T05:59:30.915Z,2.15
2023-02-18T06:01:57.813Z,2.28
2023-02-18T06:04:24.726Z,2.14
2023-02-18T06:06:51.217Z,2.26
2023-02-18T06:09:17.932Z,2.26
2023-02-18T06:11:44.449Z,2.28
2023-02-18T06:14:10.913Z,2.30
2023-02-18T06:16:37.448Z,2.30
2023-02-18T06:19:04.230Z,2.31
2023-02-18T06:21:31.057Z,2.23
2023-02-18T06:23:57.496Z,2.28
2023-02-18T06:26:24.207Z,2.35
2023-02-18T06:28:50.653Z,2.33
2023-02-18T06:31:17.132Z,2.29
2023-02-18T06:33:43.645Z,2.34
2023-02-18T06:36:12.532Z,2.28
2023-02-18T06:38:41.189Z,2.28
2023-02-18T06:41:07.973Z,2.28
2023-02-18T06:43:34.846Z,2.28
2023-02-18T06:46:01.291Z,2.34
2023-02-18T06:48:28.437Z,2.32
2023-02-18T06:50:55.069Z,2.40
2023-02-18T06:53:21.500Z,2.43
2023-02-18T06:55:47.985Z,2.42
2023-02-18T06:58:14.928Z,2.44
2023-02-18T07:00:42.158Z,2.47
2023-02-18T07:03:08.807Z,2.50
2023-02-18T07:05:35.397Z,2.42
2023-02-18T07:08:01.886Z,2.54
2023-02-18T07:10:28.471Z,2.48
2023-02-18T07:12:54.917Z,2.50
2023-02-18T07:15:24.312Z,2.57
2023-02-18T07:17:51.676Z,2.56
2023-02-18T07:20:19.053Z,2.58
2023-02-18T07:22:45.807Z,2.60
2023-02-18T07:25:12.710Z,2.59
2023-02-18T07:27:39.330Z,2.57
2023-02-18T07:30:06.486Z,2.49
2023-02-18T07:32:32.947Z,2.55
2023-02-18T07:34:59.403Z,2.50
2023-02-18T07:37:25.840Z,2.45
2023-02-18T07:39:52.328Z,2.55
2023-02-18T07:42:18.923Z,2.39
2023-02-18T07:44:45.532Z,2.45
2023-02-18T07:47:15.707Z,2.50
2023-02-18T07:49:43.095Z,2.51
2023-02-18T07:52:09.534Z,2.46
2023-02-18T07:54:35.987Z,2.52
2023-02-18T07:57:02.712Z,2.57
2023-02-18T07:59:29.194Z,2.50
2023-02-18T08:01:55.748Z,2.55
2023-02-18T08:04:22.395Z,2.60
2023-02-18T08:06:49.807Z,2.50
2023-02-18T08:09:17.687Z,2.59
2023-02-18T08:11:44.269Z,2.55
2023-02-18T08:14:10.762Z,2.45
2023-02-18T08:16:37.423Z,2.52
2023-02-18T08:19:04.181Z,2.51
2023-02-18T08:21:31.252Z,2.52
2023-02-18T08:23:59.752Z,2.55
2023-02-18T08:26:27.377Z,2.56
2023-02-18T08:28:54.000Z,2.65
2023-02-18T08:31:23.254Z,2.56
2023-02-18T08:33:50.415Z,2.58
2023-02-18T08:36:17.015Z,2.72
2023-02-18T08:38:43.508Z,2.65
2023-02-18T08:41:10.649Z,2.54
2023-02-18T08:43:37.701Z,2.63
2023-02-18T08:46:04.686Z,2.76
2023-02-18T08:48:31.206Z,2.73
2023-02-18T08:50:58.201Z,2.75
2023-02-18T08:53:24.869Z,2.79
2023-02-18T08:55:51.361Z,2.81
2023-02-18T08:58:18.024Z,2.78
2023-02-18T09:00:45.172Z,2.63
2023-02-18T09:03:15.665Z,2.69
2023-02-18T09:05:42.451Z,2.55
2023-02-18T09:08:09.141Z,2.56
2023-02-18T09:44:50.965Z,2.00
2023-02-18T09:47:37.512Z,2.12
2023-02-18T09:50:33.885Z,2.12
2023-02-18T09:53:02.342Z,2.13
2023-02-18T09:55:39.282Z,2.11
2023-02-18T09:58:14.240Z,2.25
2023-02-18T10:01:05.429Z,2.28
2023-02-18T10:03:32.135Z,2.12
2023-02-18T10:06:02.328Z,2.30
2023-02-18T10:08:35.365Z,2.30
2023-02-18T10:11:02.285Z,2.27
2023-02-18T10:13:31.495Z,2.24
2023-02-18T10:15:58.018Z,2.27
2023-02-18T10:18:34.515Z,2.28
2023-02-18T10:21:10.404Z,2.16
2023-02-18T10:23:41.955Z,2.24
2023-02-18T10:26:16.761Z,2.12
2023-02-18T10:28:44.342Z,2.17
2023-02-18T10:31:17.304Z,2.23
2023-02-18T10:33:58.959Z,2.07
2023-02-18T10:36:27.543Z,2.16
2023-02-18T10:39:16.253Z,2.24
2023-02-18T10:42:00.806Z,2.18
2023-02-18T10:44:40.469Z,2.23
2023-02-18T10:48:04.525Z,2.25
2023-02-18T10:50:34.255Z,2.11
2023-02-18T10:53:08.473Z,2.17
2023-02-18T10:55:44.057Z,2.27
2023-02-18T10:58:37.324Z,2.12
2023-02-18T11:01:11.510Z,2.14
2023-02-18T11:03:46.908Z,2.25
2023-02-18T11:06:33.485Z,2.31
2023-02-18T11:09:00.976Z,2.30
2023-02-18T11:11:37.044Z,2.43
2023-02-18T11:14:05.583Z,2.33
2023-02-18T11:16:41.282Z,2.34
2023-02-18T11:19:34.291Z,2.35
2023-02-18T11:22:19.111Z,2.26
2023-02-18T11:24:48.626Z,2.24
2023-02-18T11:27:23.659Z,2.20
2023-02-18T11:30:12.276Z,2.26
2023-02-18T11:32:38.810Z,2.21
2023-02-18T11:35:05.854Z,2.18
2023-02-18T11:37:35.600Z,2.27
2023-02-18T11:40:02.168Z,2.22
2023-02-18T11:42:28.682Z,2.32
2023-02-18T11:45:00.446Z,2.37
2023-02-18T11:47:37.779Z,2.42
2023-02-18T11:50:10.082Z,2.40
2023-02-18T11:52:37.794Z,2.43
2023-02-18T11:55:18.185Z,2.51
2023-02-18T11:58:02.549Z,2.50
2023-02-18T12:00:47.303Z,2.56
2023-02-18T12:03:28.642Z,2.61
2023-02-18T12:05:58.890Z,2.68
2023-02-18T12:08:31.276Z,2.75
2023-02-18T12:11:05.165Z,2.83
2023-02-18T12:13:34.352Z,2.88
2023-02-18T12:16:19.283Z,2.93
2023-02-18T12:19:01.085Z,3.06
2023-02-18T12:21:33.985Z,3.15
2023-02-18T12:24:14.903Z,3.19
2023-02-18T12:27:12.707Z,3.30
2023-02-18T12:29:48.908Z,3.36
2023-02-18T12:32:27.766Z,3.51
2023-02-18T12:35:03.232Z,3.55
2023-02-18T12:37:51.508Z,3.67
2023-02-18T12:40:48.479Z,3.75
2023-02-18T12:43:31.154Z,3.93
2023-02-18T12:46:15.653Z,4.11
2023-02-18T12:48:42.208Z,4.21
2023-02-18T12:51:41.569Z,4.36
2023-02-18T12:54:35.250Z,4.49
2023-02-18T12:57:25.074Z,4.57
2023-02-18T13:00:14.394Z,4.58
2023-02-18T13:03:00.772Z,4.83
2023-02-18T13:05:49.832Z,4.84
2023-02-18T13:08:53.539Z,4.88
2023-02-18T13:11:26.871Z,4.93
2023-02-18T13:14:04.244Z,4.92
2023-02-18T13:16:32.505Z,5.01
2023-02-18T13:19:01.880Z,5.00
2023-02-18T13:21:29.439Z,5.10
2023-02-18T13:24:02.537Z,5.09
2023-02-18T13:26:31.474Z,5.03
2023-02-18T13:29:28.587Z,5.13
2023-02-18T13:32:24.718Z,5.16
2023-02-18T13:35:12.863Z,5.21
2023-02-18T13:37:57.759Z,5.18
2023-02-18T13:40:30.561Z,5.20
2023-02-18T13:43:29.737Z,5.23
2023-02-18T13:46:14.579Z,5.23
2023-02-18T13:48:50.802Z,5.21
2023-02-18T13:51:40.045Z,5.19
2023-02-18T13:54:22.619Z,5.22
2023-02-18T13:57:02.583Z,5.26
2023-02-18T13:59:28.946Z,5.20
2023-02-18T14:01:55.645Z,5.21
2023-02-18T14:04:37.195Z,5.17
2023-02-18T14:07:25.397Z,5.19
2023-02-18T14:09:53.732Z,5.21
2023-02-18T14:12:23.278Z,5.19
2023-02-18T14:14:50.995Z,5.20
2023-02-18T14:17:20.215Z,5.20
2023-02-18T14:20:01.771Z,5.17
2023-02-18T14:22:29.425Z,5.19
2023-02-18T14:25:02.644Z,5.21
2023-02-18T14:27:29.484Z,5.17
2023-02-18T14:30:04.631Z,5.23
2023-02-18T14:32:31.210Z,5.22
2023-02-18T14:35:06.616Z,5.27
2023-02-18T14:37:47.826Z,5.24
2023-02-18T14:40:27.630Z,5.25
2023-02-18T14:43:12.216Z,5.26
2023-02-18T14:46:00.608Z,5.25
2023-02-18T14:48:42.345Z,5.26
2023-02-18T14:51:09.350Z,5.24
2023-02-18T14:53:44.447Z,5.24
2023-02-18T14:56:14.890Z,5.25
2023-02-18T14:58:46.664Z,5.25
2023-02-18T15:01:18.759Z,5.31
2023-02-18T15:03:47.201Z,5.23
2023-02-18T15:06:22.798Z,5.31
2023-02-18T15:08:49.244Z,5.28
2023-02-18T15:11:17.137Z,5.28
2023-02-18T15:13:46.044Z,5.27
2023-02-18T15:16:31.275Z,5.26
2023-02-18T15:19:04.873Z,5.26
2023-02-18T15:21:40.861Z,5.22
2023-02-18T15:24:18.579Z,5.25
2023-02-18T15:26:49.130Z,5.28
2023-02-18T15:29:21.756Z,5.31
2023-02-18T15:31:49.167Z,5.43
2023-02-18T15:34:31.204Z,5.38
2023-02-18T15:36:59.815Z,5.35
2023-02-18T15:39:27.100Z,5.35
2023-02-18T15:41:56.437Z,5.36
2023-02-18T15:44:27.404Z,5.34
2023-02-18T15:46:54.505Z,5.33
2023-02-18T15:49:24.376Z,5.33
2023-02-18T15:51:56.999Z,5.29
2023-02-18T15:54:24.467Z,5.28
2023-02-18T15:56:54.628Z,5.24
2023-02-18T15:59:34.158Z,5.25
2023-02-18T16:02:21.938Z,5.12
2023-02-18T16:04:57.777Z,5.14
2023-02-18T16:07:32.885Z,5.14
2023-02-18T16:10:16.030Z,5.15
2023-02-18T16:12:50.099Z,5.13
2023-02-18T16:15:25.597Z,5.14
2023-02-18T16:17:52.264Z,5.15
2023-02-18T16:20:39.289Z,5.13
2023-02-18T16:23:13.667Z,5.15
2023-02-18T16:25:42.605Z,5.21
2023-02-18T16:28:16.419Z,5.15
2023-02-18T16:30:45.384Z,5.14
2023-02-18T16:33:13.017Z,5.13
2023-02-18T16:35:49.528Z,5.09
2023-02-18T16:38:20.049Z,5.09
2023-02-18T16:40:47.829Z,5.11
2023-02-18T16:43:16.008Z,5.14
2023-02-18T16:45:49.740Z,5.11
2023-02-18T16:48:19.504Z,5.20
2023-02-18T16:50:46.308Z,5.12
2023-02-18T16:53:14.010Z,5.16
2023-02-18T16:55:40.816Z,5.07
2023-02-18T16:58:07.344Z,5.04
2023-02-18T17:00:34.134Z,4.95
2023-02-18T17:03:01.642Z,4.96
2023-02-18T17:05:31.337Z,4.91
2023-02-18T17:08:14.145Z,4.91
2023-02-18T17:10:40.865Z,4.92
2023-02-18T17:13:13.286Z,4.79
2023-02-18T17:15:41.059Z,4.62
2023-02-18T17:18:07.751Z,4.46
2023-02-18T17:20:34.383Z,4.45
2023-02-18T17:23:00.873Z,4.29
2023-02-18T17:25:38.249Z,4.13
2023-02-18T17:28:05.547Z,4.10
2023-02-18T17:30:35.950Z,4.07
2023-02-18T17:33:03.967Z,4.03
2023-02-18T17:35:30.870Z,4.01
2023-02-18T17:37:57.853Z,3.98
2023-02-18T17:40:26.593Z,3.95
2023-02-18T17:42:54.703Z,3.94
2023-02-18T17:45:28.819Z,3.94
2023-02-18T17:47:57.077Z,3.95
2023-02-18T17:50:24.023Z,3.89
2023-02-18T17:52:50.851Z,3.80
2023-02-18T17:55:23.252Z,3.79
2023-02-18T17:57:50.722Z,3.78
2023-02-18T18:00:21.150Z,3.67
2023-02-18T18:02:48.022Z,3.66
2023-02-18T18:05:22.108Z,3.69
2023-02-18T18:07:50.052Z,3.67
2023-02-18T18:10:17.264Z,3.61
2023-02-18T18:12:43.741Z,3.60
2023-02-18T18:15:26.344Z,3.62
2023-02-18T18:17:53.482Z,3.65
2023-02-18T18:20:21.002Z,3.63
2023-02-18T18:22:47.870Z,3.61
2023-02-18T18:25:18.739Z,3.62
2023-02-18T18:27:45.713Z,3.52
2023-02-18T18:30:12.621Z,3.53
2023-02-18T18:32:39.184Z,3.51
2023-02-18T18:35:18.716Z,3.44
2023-02-18T18:37:45.173Z,3.54
2023-02-18T18:40:11.647Z,3.48
2023-02-18T18:42:38.244Z,3.44
2023-02-18T18:45:05.104Z,3.39
2023-02-18T18:47:31.845Z,3.34
2023-02-18T18:49:58.518Z,3.33
2023-02-18T18:52:25.183Z,3.33
2023-02-18T18:54:51.832Z,3.28
2023-02-18T18:57:18.284Z,3.27
2023-02-18T18:59:44.717Z,3.22
2023-02-18T19:02:16.558Z,3.10
2023-02-18T19:04:43.010Z,3.14
2023-02-18T19:07:09.475Z,3.14
2023-02-18T19:09:35.907Z,3.16
2023-02-18T19:12:02.339Z,3.15
2023-02-18T19:14:28.772Z,3.23
2023-02-18T19:16:56.384Z,3.15
2023-02-18T19:19:24.585Z,3.19
2023-02-18T19:21:51.339Z,3.12
2023-02-18T19:24:21.000Z,3.12
2023-02-18T19:26:47.440Z,3.11
2023-02-18T19:29:13.857Z,3.08
2023-02-18T19:31:40.666Z,3.02
2023-02-18T19:34:09.100Z,3.02
2023-02-18T19:36:35.544Z,3.02
2023-02-18T19:39:05.092Z,3.06
2023-02-18T19:41:31.606Z,3.03
2023-02-18T19:44:01.302Z,3.02
2023-02-18T19:46:27.929Z,3.03
2023-02-18T19:48:55.978Z,3.02
2023-02-18T19:51:23.272Z,2.99
2023-02-18T19:53:49.765Z,3.02
2023-02-18T19:56:16.239Z,3.01
2023-02-18T19:58:42.845Z,2.97
2023-02-18T20:01:16.836Z,2.98
2023-02-18T20:03:44.608Z,3.00
2023-02-18T20:06:18.311Z,3.03
2023-02-18T20:08:45.983Z,3.02
2023-02-18T20:11:12.534Z,3.02
2023-02-18T20:13:39.132Z,3.08
2023-02-18T20:16:07.266Z,3.00
2023-02-18T20:18:33.876Z,3.05
2023-02-18T20:21:00.816Z,3.02
2023-02-18T20:23:27.591Z,3.07
2023-02-18T20:25:54.163Z,3.10
2023-02-18T20:28:20.887Z,3.11
2023-02-18T20:30:47.441Z,3.09
2023-02-18T20:33:13.890Z,3.00
2023-02-18T20:35:40.628Z,3.04
2023-02-18T20:38:07.043Z,2.97
2023-02-18T20:40:33.622Z,3.04
2023-02-18T20:43:00.526Z,2.99
2023-02-18T20:45:27.180Z,3.04
2023-02-18T20:47:53.683Z,3.01
2023-02-18T20:50:21.770Z,3.02
2023-02-18T20:52:48.214Z,3.01
2023-02-18T20:55:14.674Z,3.03
2023-02-18T20:57:41.091Z,3.06
2023-02-18T21:00:08.258Z,2.94
2023-02-18T21:02:34.803Z,2.95
2023-02-18T21:05:01.332Z,2.96
2023-02-18T21:07:27.767Z,3.00
2023-02-18T21:09:54.191Z,2.85
2023-02-18T21:12:20.750Z,2.91
2023-02-18T21:14:47.314Z,2.93
2023-02-18T21:17:14.200Z,2.91
2023-02-18T21:19:40.979Z,2.91
2023-02-18T21:22:07.420Z,2.95
2023-02-18T21:24:33.929Z,2.96
2023-02-18T21:27:00.405Z,2.81
2023-02-18T21:29:27.450Z,2.89
2023-02-18T21:31:54.017Z,2.90
2023-02-18T21:34:22.077Z,2.84
2023-02-18T21:36:48.596Z,2.87
2023-02-18T21:39:15.152Z,2.90
2023-02-18T21:41:41.679Z,2.85
2023-02-18T21:44:09.365Z,2.78
2023-02-18T21:46:37.260Z,2.72
2023-02-18T21:49:12.357Z,2.78
2023-02-18T21:51:57.273Z,2.81
2023-02-18T21:54:26.550Z,2.72
2023-02-18T21:56:54.323Z,2.70
2023-02-18T21:59:22.393Z,2.67
2023-02-18T22:01:49.220Z,2.67
2023-02-18T22:04:16.172Z,2.69
2023-02-18T22:06:42.670Z,2.65
2023-02-18T22:09:11.528Z,2.68
2023-02-18T22:11:42.114Z,2.70
2023-02-18T22:14:10.231Z,2.72
2023-02-18T22:16:37.119Z,2.67
2023-02-18T22:19:04.230Z,2.59
2023-02-18T22:21:30.839Z,2.52
2023-02-18T22:23:57.335Z,2.63
2023-02-18T22:26:24.120Z,2.52
2023-02-18T22:28:55.850Z,2.58
2023-02-18T22:31:23.753Z,2.61
2023-02-18T22:33:52.274Z,2.56
2023-02-18T22:36:20.688Z,2.58
2023-02-18T22:38:47.735Z,2.49
2023-02-18T22:41:16.431Z,2.42
2023-02-18T22:43:43.256Z,2.40
2023-02-18T22:46:17.689Z,2.48
2023-02-18T22:48:44.521Z,2.45
2023-02-18T22:51:17.551Z,2.43
2023-02-18T22:53:45.557Z,2.39
2023-02-18T22:56:18.405Z,2.50
2023-02-18T22:58:46.923Z,2.43
2023-02-18T23:01:25.801Z,2.35
2023-02-18T23:03:53.593Z,2.42
2023-02-18T23:06:21.536Z,2.40
2023-02-18T23:08:49.282Z,2.43
2023-02-18T23:11:19.568Z,2.43
2023-02-18T23:14:07.244Z,2.40
2023-02-18T23:16:54.850Z,2.43
2023-02-18T23:19:21.753Z,2.50
2023-02-18T23:21:48.373Z,2.33
2023-02-18T23:24:15.174Z,2.38
2023-02-18T23:26:41.708Z,2.38
2023-02-18T23:29:08.632Z,2.38
2023-02-18T23:31:37.755Z,2.33
2023-02-18T23:34:06.464Z,2.41
2023-02-18T23:36:34.900Z,2.30
2023-02-18T23:39:08.197Z,2.39
2023-02-18T23:41:36.152Z,2.29
2023-02-18T23:44:04.289Z,2.27
2023-02-18T23:46:31.319Z,2.34
2023-02-18T23:49:01.289Z,2.39
2023-02-18T23:51:27.971Z,2.46
2023-02-18T23:53:56.124Z,2.36
2023-02-18T23:56:27.407Z,2.36
2023-02-18T23:59:00.305Z,2.36
